Flight Track Log - Related Links

Times and Time Zones

All times are in EDT time to prevent confusion due to time zone crossing. See the SIA7971 flight status page for this flight to view local times or setup timezone preferences in your user account.

Time Position Orientation Groundspeed Altitude Reporting Facility
EDT Latitude Longitude Course Direction KTS MPH feet Rate Location/Type
Wed 11:57:00 PM 34.1252 -117.9844 62° Northeast  Level Estimated
Wed 11:58:00 PM 34.1857 -117.8427 63° Northeast  Level Estimated
Wed 11:59:00 PM 34.2462 -117.7009 63° Northeast  Level Estimated
Thu 12:00:00 AM 34.3064 -117.5588 63° Northeast  Level Estimated
Thu 12:01:00 AM 34.3665 -117.4166 63° Northeast  Level Estimated
Thu 12:02:00 AM 34.4264 -117.2741 63° Northeast  Level Estimated
Thu 12:03:00 AM 34.4861 -117.1315 63° Northeast  Level Estimated
Thu 12:04:00 AM 34.5457 -116.9886 63° Northeast  Level Estimated
Thu 12:05:00 AM 34.6051 -116.8455 63° Northeast  Level Estimated
Thu 12:06:00 AM 34.6644 -116.7023 63° Northeast  Level Estimated
Thu 12:07:00 AM 34.7235 -116.5588 63° Northeast  Level Estimated
Thu 12:08:00 AM 34.7824 -116.4151 63° Northeast  Level Estimated
Thu 12:09:00 AM 34.8411 -116.2712 64° Northeast  Level Estimated
Thu 12:10:00 AM 34.8997 -116.1271 64° Northeast  Level Estimated
Thu 12:11:00 AM 34.9581 -115.9828 64° Northeast  Level Estimated
Thu 12:12:00 AM 35.0163 -115.8383 64° Northeast  Level Estimated
Thu 12:13:00 AM 35.0744 -115.6936 64° Northeast  Level Estimated
Thu 12:14:00 AM 35.1323 -115.5487 64° Northeast  Level Estimated
Thu 12:15:00 AM 35.1900 -115.4036 64° Northeast  Level Estimated
Thu 12:16:00 AM 35.2475 -115.2582 64° Northeast  Level Estimated
Thu 12:17:00 AM 35.3049 -115.1127 64° Northeast  Level Estimated
Thu 12:18:00 AM 35.3621 -114.9670 64° Northeast  Level Estimated
Thu 12:19:00 AM 35.4191 -114.8210 64° Northeast  Level Estimated
Thu 12:20:00 AM 35.4759 -114.6749 64° Northeast  Level Estimated
Thu 12:21:00 AM 35.5326 -114.5285 65° Northeast  Level Estimated
Thu 12:22:00 AM 35.5891 -114.3819 65° Northeast  Level Estimated
Thu 12:23:00 AM 35.6454 -114.2352 65° Northeast  Level Estimated
Thu 12:24:00 AM 35.7015 -114.0882 65° Northeast  Level Estimated
Thu 12:25:00 AM 35.7575 -113.9410 65° Northeast  Level Estimated
Thu 12:26:00 AM 35.8133 -113.7936 65° Northeast  Level Estimated
Thu 12:27:00 AM 35.8689 -113.6460 65° Northeast  Level Estimated
Thu 12:28:00 AM 35.9243 -113.4982 65° Northeast  Level Estimated
Thu 12:29:00 AM 35.9795 -113.3502 65° Northeast  Level Estimated
Thu 12:30:00 AM 36.0346 -113.2020 65° Northeast  Level Estimated
Thu 12:31:00 AM 36.0894 -113.0535 65° Northeast  Level Estimated
Thu 12:32:00 AM 36.1441 -112.9049 65° Northeast  Level Estimated
Thu 12:33:00 AM 36.1986 -112.7561 66° East  Level Estimated
Thu 12:34:00 AM 36.2529 -112.6070 66° East  Level Estimated
Thu 12:35:00 AM 36.3071 -112.4578 66° East  Level Estimated
Thu 12:36:00 AM 36.3610 -112.3083 66° East  Level Estimated
Thu 12:37:00 AM 36.4148 -112.1586 66° East  Level Estimated
Thu 12:38:00 AM 36.4683 -112.0088 66° East  Level Estimated
Thu 12:39:00 AM 36.5217 -111.8587 66° East  Level Estimated
Thu 12:40:00 AM 36.5749 -111.7084 66° East  Level Estimated
Thu 12:41:00 AM 36.6279 -111.5579 66° East  Level Estimated
Thu 12:42:00 AM 36.6808 -111.4072 66° East  Level Estimated
Thu 12:43:00 AM 36.7334 -111.2563 66° East  Level Estimated
Thu 12:44:00 AM 36.7858 -111.1051 67° East  Level Estimated
Thu 12:45:00 AM 36.8381 -110.9538 67° East  Level Estimated
Thu 12:46:00 AM 36.8901 -110.8023 67° East  Level Estimated
Thu 12:47:00 AM 36.9420 -110.6506 67° East  Level Estimated
Thu 12:48:00 AM 36.9936 -110.4986 67° East  Level Estimated
Thu 12:49:00 AM 37.0451 -110.3465 67° East  Level Estimated
Thu 12:50:00 AM 37.0964 -110.1941 67° East  Level Estimated
Thu 12:51:00 AM 37.1475 -110.0415 67° East  Level Estimated
Thu 12:52:00 AM 37.1984 -109.8888 67° East  Level Estimated
Thu 12:53:00 AM 37.2491 -109.7358 67° East  Level Estimated
Thu 12:54:00 AM 37.2995 -109.5826 67° East  Level Estimated
Thu 12:55:00 AM 37.3498 -109.4293 68° East  Level Estimated
Thu 12:56:00 AM 37.3999 -109.2757 68° East  Level Estimated
Thu 12:57:00 AM 37.4498 -109.1219 68° East  Level Estimated
Thu 12:58:00 AM 37.4995 -108.9679 68° East  Level Estimated
Thu 12:59:00 AM 37.5490 -108.8137 68° East  Level Estimated
Thu 01:00:00 AM 37.5984 -108.6593 68° East  Level Estimated
Thu 01:01:00 AM 37.6474 -108.5046 68° East  Level Estimated
Thu 01:02:00 AM 37.6964 -108.3498 68° East  Level Estimated
Thu 01:03:00 AM 37.7450 -108.1948 68° East  Level Estimated
Thu 01:04:00 AM 37.7935 -108.0396 68° East  Level Estimated
Thu 01:05:00 AM 37.8418 -107.8842 68° East  Level Estimated
Thu 01:06:00 AM 37.8899 -107.7285 69° East  Level Estimated
Thu 01:07:00 AM 37.9378 -107.5727 69° East  Level Estimated
Thu 01:08:00 AM 37.9855 -107.4167 69° East  Level Estimated
Thu 01:09:00 AM 38.0329 -107.2604 69° East  Level Estimated
Thu 01:10:00 AM 38.0802 -107.1040 69° East  Level Estimated
Thu 01:11:00 AM 38.1272 -106.9473 69° East  Level Estimated
Thu 01:12:00 AM 38.1741 -106.7905 69° East  Level Estimated
Thu 01:13:00 AM 38.2207 -106.6335 69° East  Level Estimated
Thu 01:14:00 AM 38.2671 -106.4762 69° East  Level Estimated
Thu 01:15:00 AM 38.3133 -106.3187 69° East  Level Estimated
Thu 01:16:00 AM 38.3593 -106.1611 70° East  Level Estimated
Thu 01:17:00 AM 38.4051 -106.0033 70° East  Level Estimated
Thu 01:18:00 AM 38.4507 -105.8452 70° East  Level Estimated
Thu 01:19:00 AM 38.4961 -105.6870 70° East  Level Estimated
Thu 01:20:00 AM 38.5412 -105.5285 70° East  Level Estimated
Thu 01:21:00 AM 38.5862 -105.3699 70° East  Level Estimated
Thu 01:22:00 AM 38.6309 -105.2110 70° East  Level Estimated
Thu 01:23:00 AM 38.6754 -105.0520 70° East  Level Estimated
Thu 01:24:00 AM 38.7197 -104.8927 70° East  Level Estimated
Thu 01:25:00 AM 38.7637 -104.7333 70° East  Level Estimated
Thu 01:26:00 AM 38.8076 -104.5737 71° East  Level Estimated
Thu 01:27:00 AM 38.8512 -104.4138 71° East  Level Estimated
Thu 01:28:00 AM 38.8947 -104.2538 71° East  Level Estimated
Thu 01:29:00 AM 38.9379 -104.0936 71° East  Level Estimated
Thu 01:30:00 AM 38.9809 -103.9332 71° East  Level Estimated
Thu 01:31:00 AM 39.0236 -103.7726 71° East  Level Estimated
Thu 01:32:00 AM 39.0662 -103.6118 71° East  Level Estimated
Thu 01:33:00 AM 39.1085 -103.4508 71° East  Level Estimated
Thu 01:34:00 AM 39.1506 -103.2896 71° East  Level Estimated
Thu 01:35:00 AM 39.1925 -103.1282 71° East  Level Estimated
Thu 01:36:00 AM 39.2342 -102.9666 72° East  Level Estimated
Thu 01:37:00 AM 39.2756 -102.8049 72° East  Level Estimated
Thu 01:38:00 AM 39.3168 -102.6429 72° East  Level Estimated
Thu 01:39:00 AM 39.3578 -102.4808 72° East  Level Estimated
Thu 01:40:00 AM 39.3985 -102.3184 72° East  Level Estimated
Thu 01:41:00 AM 39.4391 -102.1559 72° East  Level Estimated
Thu 01:42:00 AM 39.4794 -101.9932 72° East  Level Estimated
Thu 01:43:00 AM 39.5195 -101.8303 72° East  Level Estimated
Thu 01:44:00 AM 39.5593 -101.6672 72° East  Level Estimated
Thu 01:45:00 AM 39.5990 -101.5039 72° East  Level Estimated
Thu 01:46:00 AM 39.6384 -101.3405 73° East  Level Estimated
Thu 01:47:00 AM 39.6775 -101.1768 73° East  Level Estimated
Thu 01:48:00 AM 39.7165 -101.0130 73° East  Level Estimated
Thu 01:49:00 AM 39.7552 -100.8490 73° East  Level Estimated
Thu 01:50:00 AM 39.7937 -100.6848 73° East  Level Estimated
Thu 01:51:00 AM 39.8319 -100.5204 73° East  Level Estimated
Thu 01:52:00 AM 39.8699 -100.3558 73° East  Level Estimated
Thu 01:53:00 AM 39.9077 -100.1911 73° East  Level Estimated
Thu 01:54:00 AM 39.9452 -100.0261 73° East  Level Estimated
Thu 01:55:00 AM 39.9826 -99.8610 74° East  Level Estimated
Thu 01:56:00 AM 40.0196 -99.6957 74° East  Level Estimated
Thu 01:57:00 AM 40.0565 -99.5303 74° East  Level Estimated
Thu 01:58:00 AM 40.0931 -99.3646 74° East  Level Estimated
Thu 01:59:00 AM 40.1295 -99.1988 74° East  Level Estimated
Thu 02:00:00 AM 40.1656 -99.0328 74° East  Level Estimated
Thu 02:01:00 AM 40.2015 -98.8666 74° East  Level Estimated
Thu 02:02:00 AM 40.2371 -98.7002 74° East  Level Estimated
Thu 02:03:00 AM 40.2726 -98.5337 74° East  Level Estimated
Thu 02:04:00 AM 40.3077 -98.3670 74° East  Level Estimated
Thu 02:05:00 AM 40.3427 -98.2001 75° East  Level Estimated
Thu 02:06:00 AM 40.3774 -98.0331 75° East  Level Estimated
Thu 02:07:00 AM 40.4118 -97.8659 75° East  Level Estimated
Thu 02:08:00 AM 40.4461 -97.6985 75° East  Level Estimated
Thu 02:09:00 AM 40.4800 -97.5309 75° East  Level Estimated
Thu 02:10:00 AM 40.5138 -97.3632 75° East  Level Estimated
Thu 02:11:00 AM 40.5473 -97.1953 75° East  Level Estimated
Thu 02:12:00 AM 40.5805 -97.0272 75° East  Level Estimated
Thu 02:13:00 AM 40.6135 -96.8590 75° East  Level Estimated
Thu 02:14:00 AM 40.6463 -96.6906 76° East  Level Estimated
Thu 02:15:00 AM 40.6788 -96.5220 76° East  Level Estimated
Thu 02:16:00 AM 40.7111 -96.3533 76° East  Level Estimated
Thu 02:17:00 AM 40.7431 -96.1844 76° East  Level Estimated
Thu 02:18:00 AM 40.7749 -96.0154 76° East  Level Estimated
Thu 02:19:00 AM 40.8064 -95.8461 76° East  Level Estimated
Thu 02:20:00 AM 40.8377 -95.6768 76° East  Level Estimated
Thu 02:21:00 AM 40.8687 -95.5072 76° East  Level Estimated
Thu 02:22:00 AM 40.8995 -95.3375 76° East  Level Estimated
Thu 02:23:00 AM 40.9301 -95.1677 77° East  Level Estimated
Thu 02:24:00 AM 40.9604 -94.9977 77° East  Level Estimated
Thu 02:25:00 AM 40.9904 -94.8275 77° East  Level Estimated
Thu 02:26:00 AM 41.0202 -94.6572 77° East  Level Estimated
Thu 02:27:00 AM 41.0497 -94.4867 77° East  Level Estimated
Thu 02:28:00 AM 41.0790 -94.3161 77° East  Level Estimated
Thu 02:29:00 AM 41.1081 -94.1453 77° East  Level Estimated
Thu 02:30:00 AM 41.1368 -93.9744 77° East  Level Estimated
Thu 02:31:00 AM 41.1654 -93.8034 77° East  Level Estimated
Thu 02:32:00 AM 41.1936 -93.6321 78° East  Level Estimated
Thu 02:33:00 AM 41.2217 -93.4608 78° East  Level Estimated
Thu 02:34:00 AM 41.2494 -93.2893 78° East  Level Estimated
Thu 02:35:00 AM 41.2769 -93.1176 78° East  Level Estimated
Thu 02:36:00 AM 41.3042 -92.9458 78° East  Level Estimated
Thu 02:37:00 AM 41.3312 -92.7738 78° East  Level Estimated
Thu 02:38:00 AM 41.3579 -92.6018 78° East  Level Estimated
Thu 02:39:00 AM 41.3844 -92.4295 78° East  Level Estimated
Thu 02:40:00 AM 41.4107 -92.2571 78° East  Level Estimated
Thu 02:41:00 AM 41.4366 -92.0846 79° East  Level Estimated
Thu 02:42:00 AM 41.4624 -91.9120 79° East  Level Estimated
Thu 02:43:00 AM 41.4878 -91.7392 79° East  Level Estimated
Thu 02:44:00 AM 41.5130 -91.5663 79° East  Level Estimated
Thu 02:45:00 AM 41.5380 -91.3932 79° East  Level Estimated
Thu 02:46:00 AM 41.5626 -91.2201 79° East  Level Estimated
Thu 02:47:00 AM 41.5871 -91.0467 79° East  Level Estimated
Thu 02:48:00 AM 41.6112 -90.8733 79° East  Level Estimated
Thu 02:49:00 AM 41.6351 -90.6997 80° East  Level Estimated
Thu 02:50:00 AM 41.6588 -90.5260 80° East  Level Estimated
Thu 02:51:00 AM 41.6822 -90.3522 80° East  Level Estimated
Thu 02:52:00 AM 41.7053 -90.1782 80° East  Level Estimated
Thu 02:53:00 AM 41.7281 -90.0041 80° East  Level Estimated
Thu 02:54:00 AM 41.7507 -89.8299 80° East  Level Estimated
Thu 02:55:00 AM 41.7730 -89.6556 80° East  Level Estimated
Thu 02:56:00 AM 41.7951 -89.4812 80° East  Level Estimated
Thu 02:57:00 AM 41.8169 -89.3066 80° East  Level Estimated
Thu 02:58:00 AM 41.8384 -89.1319 81° East  Level Estimated
Thu 02:59:00 AM 41.8597 -88.9571 81° East  Level Estimated
Thu 03:00:00 AM 41.8807 -88.7822 81° East  Level Estimated
Thu 03:01:00 AM 41.9014 -88.6072 81° East  Level Estimated
Thu 03:02:00 AM 41.9219 -88.4320 81° East  Level Estimated
Thu 03:03:00 AM 41.9421 -88.2568 81° East  Level Estimated
Thu 03:04:00 AM 41.9621 -88.0814 81° East  Level Estimated
Thu 03:05:00 AM 41.9817 -87.9067 81° East  Level Estimated
Thu 03:06:00 AM 41.9817 -87.9067 217° Southwest  Level Estimated
Thu 03:07:00 AM 41.9817 -87.9067 217° Southwest  Level Estimated
Thu 03:08:00 AM 41.9817 -87.9067 217° Southwest  Level Estimated
Thu 03:09:00 AM 41.9817 -87.9067 217° Southwest  Level Estimated
Thu 03:10:00 AM 41.9817 -87.9067 217° Southwest  Level Estimated
Thu 03:11:00 AM 41.9817 -87.9067 217° Southwest  Level Estimated
Thu 03:12:00 AM 41.9817 -87.9067 217° Southwest  Level Estimated
Thu 03:13:00 AM 41.9817 -87.9067 217° Southwest  Level Estimated
Thu 03:14:00 AM 41.9817 -87.9067 217° Southwest  Level Estimated
Thu 03:15:00 AM 41.9817 -87.9067 217° Southwest  Level Estimated
Thu 03:16:00 AM 41.9817 -87.9067 217° Southwest  Level Estimated
Thu 03:17:00 AM 41.9817 -87.9067 217° Southwest  Level Estimated
Thu 03:18:00 AM 41.9817 -87.9067 217° Southwest  Level Estimated
Thu 03:19:00 AM 41.9817 -87.9067 217° Southwest  Level Estimated
Thu 03:20:00 AM 41.9817 -87.9067 217° Southwest  Level Estimated
Thu 03:21:00 AM 41.9817 -87.9067 217° Southwest  Level Estimated

Login

Don't have an account? Register now (free) for customized features, flight alerts, and more!